sensor_id;sensor_type;location;lat;lon;timestamp;temperature;humidity
6672;DHT22;3372;48.690;12.362;2023-03-01T15:56:37;9.60;20.00
6672;DHT22;3372;48.690;12.362;2023-03-01T15:59:03;9.60;19.60
6672;DHT22;3372;48.690;12.362;2023-03-01T16:01:30;9.70;20.10
6672;DHT22;3372;48.690;12.362;2023-03-01T16:03:56;9.70;20.50
6672;DHT22;3372;48.690;12.362;2023-03-01T16:06:23;9.70;20.50
6672;DHT22;3372;48.690;12.362;2023-03-01T16:08:48;9.70;20.30
6672;DHT22;3372;48.690;12.362;2023-03-01T16:11:17;9.70;20.70
6672;DHT22;3372;48.690;12.362;2023-03-01T16:13:43;9.70;20.80
6672;DHT22;3372;48.690;12.362;2023-03-01T16:16:14;9.70;20.70
6672;DHT22;3372;48.690;12.362;2023-03-01T16:18:45;9.70;21.30
6672;DHT22;3372;48.690;12.362;2023-03-01T16:21:13;9.60;21.30
6672;DHT22;3372;48.690;12.362;2023-03-01T16:23:42;9.60;21.70
6672;DHT22;3372;48.690;12.362;2023-03-01T16:26:09;9.60;21.70
6672;DHT22;3372;48.690;12.362;2023-03-01T16:28:35;9.60;21.90
6672;DHT22;3372;48.690;12.362;2023-03-01T16:31:00;9.50;21.90
6672;DHT22;3372;48.690;12.362;2023-03-01T16:33:27;9.50;22.20
6672;DHT22;3372;48.690;12.362;2023-03-01T16:35:52;9.40;22.40
6672;DHT22;3372;48.690;12.362;2023-03-01T16:38:18;9.30;22.20
6672;DHT22;3372;48.690;12.362;2023-03-01T16:40:48;9.30;22.30
6672;DHT22;3372;48.690;12.362;2023-03-01T16:43:14;9.20;22.50
6672;DHT22;3372;48.690;12.362;2023-03-01T16:45:40;9.20;22.70
6672;DHT22;3372;48.690;12.362;2023-03-01T16:48:09;9.10;22.90
6672;DHT22;3372;48.690;12.362;2023-03-01T16:50:35;9.10;23.10
6672;DHT22;3372;48.690;12.362;2023-03-01T16:53:01;9.00;23.10
6672;DHT22;3372;48.690;12.362;2023-03-01T16:55:27;8.80;23.20
6672;DHT22;3372;48.690;12.362;2023-03-01T16:57:52;8.80;23.20
6672;DHT22;3372;48.690;12.362;2023-03-01T17:00:18;8.70;23.20
6672;DHT22;3372;48.690;12.362;2023-03-01T17:02:44;8.70;22.90
6672;DHT22;3372;48.690;12.362;2023-03-01T17:05:10;8.70;22.90
6672;DHT22;3372;48.690;12.362;2023-03-01T17:07:39;8.60;22.90
6672;DHT22;3372;48.690;12.362;2023-03-01T17:10:07;8.60;23.10
6672;DHT22;3372;48.690;12.362;2023-03-01T17:12:34;8.50;22.80
6672;DHT22;3372;48.690;12.362;2023-03-01T17:15:00;8.50;22.70
6672;DHT22;3372;48.690;12.362;2023-03-01T17:17:26;8.50;22.70
6672;DHT22;3372;48.690;12.362;2023-03-01T17:19:52;8.40;22.80
6672;DHT22;3372;48.690;12.362;2023-03-01T17:22:18;8.40;23.00
6672;DHT22;3372;48.690;12.362;2023-03-01T17:24:44;8.40;22.90
6672;DHT22;3372;48.690;12.362;2023-03-01T17:27:11;8.40;22.70
6672;DHT22;3372;48.690;12.362;2023-03-01T17:29:38;8.30;22.70
6672;DHT22;3372;48.690;12.362;2023-03-01T17:32:04;8.30;22.60
6672;DHT22;3372;48.690;12.362;2023-03-01T17:48:06;8.20;23.50
6672;DHT22;3372;48.690;12.362;2023-03-01T17:50:32;8.10;23.30
6672;DHT22;3372;48.690;12.362;2023-03-01T23:20:42;5.20;31.00
